Time;durP1;ratioP1;P1;durP2;ratioP2;P2;SDS_P1;SDS_P2;PMS_P1;PMS_P2;Temp;Humidity;BMP_temperature;BMP_pressure;BME280_temperature;BME280_humidity;BME280_pressure;Samples;Min_cycle;Max_cycle;Signal;HPM_P1;HPM_P2
2021/09/27 00:00:00;;;;;;;11.93;10.13;;;19.00;66.40;;;;;;5053379;28;20021;-65
2021/09/27 00:02:27;;;;;;;11.23;9.70;;;19.10;66.20;;;;;;5053014;28;20525;-65
2021/09/27 00:04:53;;;;;;;11.90;9.27;;;19.00;66.00;;;;;;5053388;28;20025;-65
2021/09/27 00:07:19;;;;;;;11.98;9.82;;;19.10;65.90;;;;;;5053325;28;20417;-65
2021/09/27 00:09:45;;;;;;;12.90;9.20;;;19.10;65.70;;;;;;5053334;28;20025;-65
2021/09/27 00:12:11;;;;;;;11.55;8.85;;;19.10;65.60;;;;;;5052993;28;20052;-65
2021/09/27 00:14:39;;;;;;;11.88;9.18;;;19.20;65.60;;;;;;5053024;28;20032;-65
2021/09/27 00:17:07;;;;;;;17.45;10.63;;;19.20;65.50;;;;;;5053084;28;20031;-65
2021/09/27 00:19:35;;;;;;;16.35;9.57;;;19.20;65.30;;;;;;5052646;28;20041;-65
2021/09/27 00:22:02;;;;;;;12.77;10.00;;;19.30;64.80;;;;;;5051782;28;20382;-65
2021/09/27 00:24:28;;;;;;;11.68;9.68;;;19.30;64.60;;;;;;5052908;28;20035;-65
2021/09/27 00:26:53;;;;;;;14.77;9.05;;;19.30;64.40;;;;;;5051568;28;20028;-65
2021/09/27 00:29:19;;;;;;;12.15;9.40;;;19.30;64.30;;;;;;5052729;28;20025;-65
2021/09/27 00:31:45;;;;;;;10.52;9.05;;;19.30;64.20;;;;;;5052553;28;20079;-65
2021/09/27 00:34:11;;;;;;;10.73;8.90;;;19.30;64.20;;;;;;5052671;28;20033;-65
2021/09/27 00:36:36;;;;;;;11.07;9.15;;;19.30;64.10;;;;;;5052645;28;20393;-65
2021/09/27 00:39:04;;;;;;;12.40;9.30;;;19.30;64.00;;;;;;5052661;28;20056;-65
2021/09/27 00:41:32;;;;;;;9.43;8.43;;;19.40;64.00;;;;;;5051171;28;20071;-65
2021/09/27 00:43:57;;;;;;;13.60;8.98;;;19.40;63.90;;;;;;5052504;28;20051;-64
2021/09/27 00:46:26;;;;;;;15.75;9.30;;;19.40;63.80;;;;;;5052408;28;20534;-65
2021/09/27 00:48:54;;;;;;;11.07;8.52;;;19.40;63.60;;;;;;5052483;28;20032;-65
2021/09/27 00:51:24;;;;;;;12.07;9.18;;;19.50;63.60;;;;;;5058415;28;20516;-65
2021/09/27 00:53:59;;;;;;;13.00;9.43;;;19.50;63.60;;;;;;5072219;28;20059;-65
2021/09/27 00:56:30;;;;;;;11.52;8.88;;;19.50;63.50;;;;;;5072331;28;20187;-65
2021/09/27 00:58:57;;;;;;;11.40;8.90;;;19.50;63.50;;;;;;5072178;28;20023;-65
2021/09/27 01:01:24;;;;;;;11.27;8.57;;;19.50;63.40;;;;;;5071861;28;20027;-65
2021/09/27 01:03:50;;;;;;;13.65;9.80;;;19.60;63.60;;;;;;5071964;28;20101;-65
2021/09/27 01:06:35;;;;;;;12.65;9.52;;;19.50;63.50;;;;;;5071832;28;20032;-65
2021/09/27 01:09:35;;;;;;;10.40;9.05;;;19.60;63.60;;;;;;5071852;28;20024;-65
2021/09/27 01:12:25;;;;;;;11.38;8.40;;;19.60;63.50;;;;;;5070320;28;20028;-68
2021/09/27 01:14:51;;;;;;;12.50;9.45;;;19.70;63.40;;;;;;5071710;28;20073;-66
2021/09/27 01:17:20;;;;;;;11.23;8.48;;;19.70;63.40;;;;;;5071613;28;20474;-65
2021/09/27 01:20:18;;;;;;;21.48;10.13;;;19.70;63.30;;;;;;5071506;28;20044;-65
2021/09/27 01:23:10;;;;;;;11.75;9.35;;;19.70;64.00;;;;;;5071653;28;20020;-65
2021/09/27 01:25:54;;;;;;;12.88;9.30;;;19.80;63.10;;;;;;5071975;28;20031;-65
2021/09/27 01:28:23;;;;;;;10.90;8.25;;;19.80;63.00;;;;;;5071709;28;20020;-65
2021/09/27 01:31:10;;;;;;;9.02;7.13;;;19.80;63.00;;;;;;5070785;28;20031;-65
2021/09/27 01:33:50;;;;;;;9.80;7.50;;;19.90;63.00;;;;;;5071464;28;20067;-65
2021/09/27 01:36:33;;;;;;;8.57;6.85;;;19.90;62.90;;;;;;5071441;28;20029;-65
2021/09/27 01:39:20;;;;;;;12.02;7.05;;;19.90;62.80;;;;;;5071693;28;20426;-65
2021/09/27 01:42:21;;;;;;;11.45;7.43;;;20.00;62.80;;;;;;5071313;28;20028;-65
2021/09/27 01:44:49;;;;;;;8.05;7.25;;;20.00;62.40;;;;;;5068828;28;20032;-65
2021/09/27 01:47:37;;;;;;;18.70;8.73;;;20.00;62.50;;;;;;5068656;28;20040;-65
2021/09/27 01:50:08;;;;;;;10.02;8.65;;;20.10;62.50;;;;;;5068772;28;20119;-65
2021/09/27 01:52:57;;;;;;;10.18;7.88;;;20.00;62.30;;;;;;5068598;28;20108;-65
2021/09/27 01:55:33;;;;;;;10.10;7.60;;;20.00;62.30;;;;;;5068906;28;20505;-65
2021/09/27 01:58:44;;;;;;;11.45;8.52;;;20.10;62.40;;;;;;5068869;28;20031;-65
2021/09/27 02:01:24;;;;;;;10.20;7.90;;;20.10;62.50;;;;;;5062636;28;20033;-65
2021/09/27 02:03:57;;;;;;;11.70;7.97;;;20.10;62.30;;;;;;5068772;28;20048;-65
2021/09/27 02:06:34;;;;;;;10.85;8.20;;;20.10;62.50;;;;;;5068751;28;20028;-65
2021/09/27 02:09:24;;;;;;;12.05;9.05;;;20.10;62.50;;;;;;5068743;28;20035;-65
2021/09/27 02:12:00;;;;;;;11.55;9.27;;;20.10;62.50;;;;;;5068482;28;20082;-65
2021/09/27 02:14:36;;;;;;;14.10;9.20;;;20.10;62.60;;;;;;5068707;28;20122;-65
2021/09/27 02:17:11;;;;;;;10.70;8.65;;;20.20;62.80;;;;;;5068568;28;20424;-65
2021/09/27 02:19:59;;;;;;;13.38;8.52;;;20.20;62.70;;;;;;5065002;28;20478;-65
2021/09/27 02:22:33;;;;;;;11.98;8.88;;;20.20;62.60;;;;;;5050893;28;20033;-65
2021/09/27 02:25:03;;;;;;;12.05;8.27;;;20.20;62.60;;;;;;5049596;28;20025;-65
2021/09/27 02:27:29;;;;;;;9.60;8.27;;;20.20;62.60;;;;;;5050859;28;20036;-65
2021/09/27 02:29:56;;;;;;;11.27;8.98;;;20.20;62.60;;;;;;5050906;28;20057;-65
2021/09/27 02:32:58;;;;;;;11.07;8.52;;;20.20;62.60;;;;;;5050558;28;20061;-65
2021/09/27 02:35:32;;;;;;;13.15;8.95;;;20.10;62.70;;;;;;5050813;28;20028;-65
2021/09/27 02:38:04;;;;;;;10.93;8.50;;;20.10;62.70;;;;;;5050753;28;20453;-65
2021/09/27 02:40:53;;;;;;;12.52;8.63;;;20.10;62.70;;;;;;5050627;28;20025;-65
2021/09/27 02:43:18;;;;;;;10.35;8.40;;;20.10;62.70;;;;;;5054640;28;20487;-66
2021/09/27 02:45:46;;;;;;;11.63;8.50;;;20.10;62.70;;;;;;5054618;28;20108;-65
2021/09/27 02:48:20;;;;;;;11.30;8.57;;;20.00;62.70;;;;;;5054450;28;20017;-65
2021/09/27 02:50:50;;;;;;;11.02;8.70;;;20.10;62.90;;;;;;5054407;28;20047;-65
2021/09/27 02:53:17;;;;;;;11.30;7.90;;;20.00;62.90;;;;;;5054471;28;20036;-65
2021/09/27 02:56:07;;;;;;;9.65;8.57;;;20.10;63.10;;;;;;5053205;28;20056;-65
2021/09/27 02:58:42;;;;;;;13.40;8.10;;;20.10;63.20;;;;;;5054647;28;20143;-65
2021/09/27 03:01:35;;;;;;;12.52;9.07;;;20.10;63.20;;;;;;5054157;28;20033;-65
2021/09/27 03:04:08;;;;;;;9.35;8.05;;;20.10;63.30;;;;;;5054329;28;20041;-65
2021/09/27 03:06:50;;;;;;;9.45;8.25;;;20.10;63.30;;;;;;5054473;28;20029;-65
2021/09/27 03:09:22;;;;;;;10.85;8.50;;;20.10;63.40;;;;;;5054178;28;20106;-65
2021/09/27 03:12:03;;;;;;;12.20;7.78;;;20.10;63.30;;;;;;5053862;28;20111;-65
2021/09/27 03:14:50;;;;;;;8.85;7.80;;;20.10;63.40;;;;;;5054141;28;20020;-65
2021/09/27 03:17:45;;;;;;;9.13;7.55;;;20.10;63.40;;;;;;5054116;28;20407;-65
2021/09/27 03:20:23;;;;;;;9.38;7.35;;;20.10;63.50;;;;;;5053989;28;20109;-65
2021/09/27 03:22:51;;;;;;;9.85;7.70;;;20.20;63.60;;;;;;5053718;28;20021;-65
2021/09/27 03:25:20;;;;;;;13.05;9.23;;;20.20;63.50;;;;;;5053891;28;20083;-65
2021/09/27 03:27:49;;;;;;;11.55;8.73;;;20.20;63.50;;;;;;5053876;28;20124;-65
2021/09/27 03:30:39;;;;;;;10.88;8.48;;;20.20;63.50;;;;;;5052312;28;20086;-65
2021/09/27 03:33:23;;;;;;;13.93;8.48;;;20.20;63.60;;;;;;5053647;28;20025;-66
2021/09/27 03:35:54;;;;;;;12.47;9.93;;;20.30;63.70;;;;;;5053712;28;20033;-65
2021/09/27 03:38:38;;;;;;;10.75;8.80;;;20.30;63.60;;;;;;5053520;28;20025;-65
2021/09/27 03:41:15;;;;;;;11.43;9.53;;;20.30;63.60;;;;;;5053609;28;20025;-66
2021/09/27 03:43:59;;;;;;;17.42;9.75;;;20.30;64.30;;;;;;5053742;28;20350;-65
2021/09/27 03:47:00;;;;;;;11.50;10.10;;;20.40;63.60;;;;;;5053408;28;20036;-66
2021/09/27 03:49:39;;;;;;;13.88;8.27;;;20.40;63.90;;;;;;5053553;28;20873;-66
2021/09/27 03:52:09;;;;;;;7.97;7.10;;;20.40;64.60;;;;;;5065666;28;20386;-66
2021/09/27 03:54:41;;;;;;;9.73;7.95;;;20.40;64.80;;;;;;5072811;28;20025;-65
2021/09/27 03:57:28;;;;;;;11.20;6.60;;;20.30;65.00;;;;;;5073357;28;20021;-65
2021/09/27 04:00:23;;;;;;;7.75;6.22;;;20.40;65.20;;;;;;5072290;28;20351;-66
2021/09/27 04:03:09;;;;;;;;;;;20.30;65.40;;;;;;5073016;28;20119;-66
2021/09/27 04:05:55;;;;;;;8.00;5.78;;;20.40;64.80;;;;;;5073028;28;19904;-65
2021/09/27 04:08:42;;;;;;;6.53;5.00;;;20.40;65.50;;;;;;5071889;28;20029;-65
2021/09/27 04:11:33;;;;;;;5.00;4.40;;;20.30;65.90;;;;;;5073040;28;20039;-66
2021/09/27 04:14:16;;;;;;;4.53;3.95;;;20.30;65.80;;;;;;5072960;28;20111;-65
2021/09/27 04:16:51;;;;;;;5.90;3.80;;;20.30;65.90;;;;;;5072987;28;20023;-66
2021/09/27 04:19:45;;;;;;;5.57;3.95;;;20.30;66.00;;;;;;5073097;28;20016;-66
2021/09/27 04:22:43;;;;;;;5.35;4.25;;;20.30;66.10;;;;;;5071579;28;20397;-66
2021/09/27 04:25:29;;;;;;;4.10;3.63;;;20.30;66.10;;;;;;5072105;28;20047;-66
2021/09/27 04:28:20;;;;;;;5.75;4.10;;;20.30;66.10;;;;;;5072753;28;20028;-65
2021/09/27 04:31:06;;;;;;;5.55;4.28;;;20.30;66.00;;;;;;5072547;28;20363;-65
2021/09/27 04:33:50;;;;;;;7.13;4.47;;;20.30;66.10;;;;;;5071575;28;20036;-65
2021/09/27 04:36:19;;;;;;;5.50;4.53;;;20.40;66.10;;;;;;5072387;28;20091;-65
2021/09/27 04:38:48;;;;;;;10.55;4.35;;;20.40;66.10;;;;;;5072448;28;20107;-65
2021/09/27 04:41:32;;;;;;;7.78;4.15;;;20.30;66.00;;;;;;5070992;28;20028;-65
2021/09/27 04:44:01;;;;;;;11.27;3.88;;;20.40;65.90;;;;;;5072351;28;20564;-65
2021/09/27 04:46:44;;;;;;;6.53;4.80;;;20.30;65.80;;;;;;5054960;28;20544;-65
2021/09/27 04:49:45;;;;;;;5.07;4.23;;;20.40;65.90;;;;;;5052224;28;20079;-65
2021/09/27 04:52:22;;;;;;;7.53;4.63;;;20.30;65.80;;;;;;5052230;28;20311;-65
2021/09/27 04:55:12;;;;;;;6.28;4.70;;;20.30;65.70;;;;;;5052215;28;20137;-65
2021/09/27 04:57:57;;;;;;;6.28;4.68;;;20.30;65.80;;;;;;5050729;28;20067;-65
2021/09/27 05:00:38;;;;;;;6.57;4.70;;;20.30;65.70;;;;;;5051955;28;20415;-65
2021/09/27 05:03:26;;;;;;;7.05;4.65;;;20.30;65.70;;;;;;5051783;28;20063;-65
2021/09/27 05:05:51;;;;;;;4.97;4.00;;;20.30;65.60;;;;;;5051033;28;20036;-65
2021/09/27 05:08:40;;;;;;;8.23;4.28;;;20.30;65.80;;;;;;5051951;28;20849;-65
2021/09/27 05:11:09;;;;;;;5.95;3.85;;;20.30;66.00;;;;;;5051005;28;20044;-65
2021/09/27 05:14:01;;;;;;;6.45;4.13;;;20.30;65.90;;;;;;5051559;28;20025;-65
2021/09/27 05:16:51;;;;;;;6.80;3.92;;;20.30;65.90;;;;;;5040591;28;20025;-65
2021/09/27 05:19:35;;;;;;;6.18;4.05;;;20.20;65.70;;;;;;5051465;28;20079;-66
2021/09/27 05:22:19;;;;;;;4.97;3.72;;;20.30;65.80;;;;;;5050117;28;20021;-66
2021/09/27 05:25:42;;;;;;;5.65;4.13;;;20.30;65.60;;;;;;5051627;28;20032;-66
2021/09/27 05:28:41;;;;;;;6.88;4.43;;;20.30;65.60;;;;;;5048960;28;20136;-65
2021/09/27 05:31:40;;;;;;;9.82;4.20;;;20.30;65.60;;;;;;5049064;28;20021;-65
2021/09/27 05:34:19;;;;;;;4.90;3.92;;;20.30;65.50;;;;;;5051332;28;20477;-66
2021/09/27 05:36:58;;;;;;;4.65;4.00;;;20.30;65.50;;;;;;5051450;28;20025;-66
2021/09/27 05:39:55;;;;;;;6.40;4.10;;;20.20;65.40;;;;;;5051723;28;20105;-64
2021/09/27 05:42:42;;;;;;;4.93;3.75;;;20.20;65.50;;;;;;5048815;28;20029;-64
2021/09/27 05:45:20;;;;;;;5.68;4.60;;;20.20;65.60;;;;;;5066768;28;20441;-65
2021/09/27 05:48:02;;;;;;;6.43;4.90;;;20.20;66.00;;;;;;5052272;28;20037;-66
2021/09/27 05:50:37;;;;;;;5.40;4.70;;;20.20;66.00;;;;;;5032249;28;20507;-66
2021/09/27 05:53:26;;;;;;;5.03;4.28;;;20.20;66.10;;;;;;5048843;28;20036;-66
2021/09/27 05:56:24;;;;;;;6.70;4.85;;;20.20;66.20;;;;;;5049050;28;20031;-66
2021/09/27 05:59:04;;;;;;;4.85;3.90;;;20.20;66.20;;;;;;4981249;28;20043;-65
2021/09/27 06:01:39;;;;;;;6.05;4.30;;;20.20;66.10;;;;;;5048589;28;20032;-65
2021/09/27 06:04:22;;;;;;;7.63;5.25;;;20.20;66.10;;;;;;5048737;28;20494;-66
2021/09/27 06:06:55;;;;;;;5.50;4.55;;;20.20;66.40;;;;;;5048717;28;20044;-66
2021/09/27 06:09:47;;;;;;;10.10;4.27;;;20.20;66.30;;;;;;5048691;28;20024;-65
2021/09/27 06:12:49;;;;;;;7.63;4.80;;;20.20;66.50;;;;;;5048455;28;20294;-66
2021/09/27 06:15:17;;;;;;;6.80;4.43;;;20.20;66.80;;;;;;5048184;28;20033;-66
2021/09/27 06:18:15;;;;;;;5.78;3.83;;;20.20;66.50;;;;;;5054163;28;20024;-66
2021/09/27 06:20:57;;;;;;;6.13;3.75;;;20.20;66.70;;;;;;5056184;28;20025;-65
2021/09/27 06:23:43;;;;;;;8.48;4.80;;;20.20;66.50;;;;;;5057657;28;20128;-66
2021/09/27 06:26:12;;;;;;;6.13;5.10;;;20.20;66.30;;;;;;5056307;28;20079;-66
2021/09/27 06:29:06;;;;;;;15.35;5.10;;;20.20;66.50;;;;;;5057265;28;20052;-65
2021/09/27 06:31:52;;;;;;;7.72;5.18;;;20.20;66.50;;;;;;5057407;28;20551;-65
2021/09/27 06:34:39;;;;;;;9.52;6.07;;;20.20;66.60;;;;;;5057398;28;20051;-65
2021/09/27 06:37:06;;;;;;;5.80;4.30;;;20.20;66.70;;;;;;5057529;28;20017;-65
2021/09/27 06:39:33;;;;;;;6.93;4.47;;;20.30;67.40;;;;;;5057857;28;20021;-66
2021/09/27 06:41:59;;;;;;;6.40;5.00;;;20.30;66.70;;;;;;5058215;28;20044;-67
2021/09/27 06:44:25;;;;;;;5.78;4.80;;;20.30;66.80;;;;;;5058385;28;20021;-66
2021/09/27 06:46:55;;;;;;;6.85;5.35;;;20.30;66.70;;;;;;5069892;28;20033;-65
2021/09/27 06:49:22;;;;;;;8.70;5.43;;;20.30;66.60;;;;;;5076538;28;20500;-65
2021/09/27 06:51:48;;;;;;;5.88;4.80;;;20.30;66.50;;;;;;5074884;28;20174;-66
2021/09/27 06:54:17;;;;;;;6.72;5.38;;;20.30;66.30;;;;;;5078173;28;20056;-65
2021/09/27 06:56:45;;;;;;;8.85;4.93;;;20.30;66.60;;;;;;5077932;28;20115;-65
2021/09/27 06:59:12;;;;;;;9.63;4.57;;;20.30;66.70;;;;;;5076644;28;20024;-65
2021/09/27 07:01:39;;;;;;;6.50;5.05;;;20.30;66.70;;;;;;5077863;28;20074;-65
2021/09/27 07:04:05;;;;;;;5.25;4.75;;;20.40;66.80;;;;;;5069334;28;20036;-65
2021/09/27 07:06:31;;;;;;;8.65;5.00;;;20.40;66.80;;;;;;5061871;28;20057;-65
2021/09/27 07:08:56;;;;;;;7.55;5.40;;;20.40;66.60;;;;;;5077416;28;20024;-65
2021/09/27 07:11:23;;;;;;;6.68;5.00;;;20.40;66.40;;;;;;5072169;28;20032;-65
2021/09/27 07:13:49;;;;;;;6.75;4.78;;;20.40;66.20;;;;;;5058025;28;20104;-64
2021/09/27 07:16:16;;;;;;;7.45;4.80;;;20.30;66.10;;;;;;5057876;28;20020;-65
2021/09/27 07:18:41;;;;;;;5.70;4.80;;;20.30;66.10;;;;;;5056729;28;20032;-65
2021/09/27 07:21:10;;;;;;;8.23;5.07;;;20.40;66.00;;;;;;5057958;28;20021;-65
2021/09/27 07:23:39;;;;;;;7.40;4.85;;;20.40;66.20;;;;;;5061461;28;20501;-64
2021/09/27 07:26:11;;;;;;;7.80;4.90;;;20.40;66.20;;;;;;5057935;28;20094;-65
2021/09/27 07:28:37;;;;;;;5.80;4.22;;;20.40;66.40;;;;;;5053533;28;20036;-65
2021/09/27 07:31:03;;;;;;;6.68;5.45;;;20.40;66.60;;;;;;5065644;28;20055;-65
2021/09/27 07:33:29;;;;;;;7.45;4.95;;;20.50;66.70;;;;;;5054605;28;20032;-65
2021/09/27 07:35:56;;;;;;;7.38;4.68;;;20.50;66.70;;;;;;5060712;28;20359;-65
2021/09/27 07:38:24;;;;;;;6.32;4.97;;;20.50;66.50;;;;;;5073333;28;20020;-66
2021/09/27 07:40:50;;;;;;;7.68;5.00;;;20.60;66.60;;;;;;5068820;28;20020;-65
2021/09/27 07:43:16;;;;;;;5.65;4.70;;;20.60;66.50;;;;;;5054625;28;20029;-65
2021/09/27 07:45:42;;;;;;;7.43;4.63;;;20.60;66.40;;;;;;5064782;28;20025;-65
2021/09/27 07:48:13;;;;;;;8.70;5.88;;;20.70;66.50;;;;;;5054147;28;20033;-65
2021/09/27 07:50:42;;;;;;;5.47;4.97;;;20.70;66.40;;;;;;5054451;28;20098;-65
2021/09/27 07:53:08;;;;;;;6.65;4.40;;;20.80;66.00;;;;;;5054356;28;20025;-66
2021/09/27 07:55:34;;;;;;;4.97;4.47;;;20.80;66.20;;;;;;5054285;28;20017;-66
2021/09/27 07:58:00;;;;;;;6.47;4.97;;;20.90;65.70;;;;;;5057290;28;20099;-66
2021/09/27 08:00:26;;;;;;;8.13;5.50;;;20.90;65.60;;;;;;5062233;28;20423;-66
2021/09/27 08:02:52;;;;;;;12.25;8.63;;;21.00;65.00;;;;;;5059987;28;20064;-66
2021/09/27 08:05:25;;;;;;;7.82;6.10;;;21.00;64.90;;;;;;5058095;28;20112;-66
2021/09/27 08:07:52;;;;;;;6.67;5.53;;;21.10;64.50;;;;;;5057971;28;20115;-66
2021/09/27 08:10:19;;;;;;;5.38;4.35;;;21.20;64.60;;;;;;5069022;28;20310;-66
2021/09/27 08:12:45;;;;;;;6.63;4.85;;;21.20;63.60;;;;;;5069100;28;20035;-66
2021/09/27 08:15:27;;;;;;;5.70;4.65;;;21.20;63.20;;;;;;5058317;28;20024;-65
2021/09/27 08:17:54;;;;;;;5.72;4.88;;;21.30;63.60;;;;;;5058203;28;20461;-65
2021/09/27 08:20:30;;;;;;;7.03;4.28;;;21.30;63.60;;;;;;5073943;28;20017;-66
2021/09/27 08:22:57;;;;;;;5.00;4.22;;;21.40;63.40;;;;;;5068054;28;20071;-65
2021/09/27 08:25:25;;;;;;;5.10;4.35;;;21.40;63.20;;;;;;5062647;28;20050;-66
2021/09/27 08:27:51;;;;;;;6.38;4.57;;;21.40;63.40;;;;;;5073943;28;20462;-65
2021/09/27 08:30:21;;;;;;;6.90;4.60;;;21.40;63.30;;;;;;5056953;28;20029;-65
2021/09/27 08:32:47;;;;;;;7.28;4.80;;;21.50;63.20;;;;;;5068896;28;20056;-65
2021/09/27 08:35:14;;;;;;;11.27;7.78;;;21.50;63.00;;;;;;5073739;28;20502;-66
2021/09/27 08:37:41;;;;;;;6.57;5.82;;;21.50;63.00;;;;;;5068396;28;20033;-65
2021/09/27 08:40:10;;;;;;;6.18;4.68;;;21.50;62.80;;;;;;5061011;28;20025;-65
2021/09/27 08:42:40;;;;;;;6.95;4.90;;;21.50;62.90;;;;;;5051710;28;20487;-66
2021/09/27 08:45:15;;;;;;;6.20;4.47;;;21.60;63.20;;;;;;5053265;28;20044;-66
2021/09/27 08:48:00;;;;;;;4.40;3.83;;;21.60;62.50;;;;;;5068758;28;20387;-66
2021/09/27 08:50:33;;;;;;;5.93;4.45;;;21.60;62.20;;;;;;5055922;28;20028;-66
2021/09/27 08:53:07;;;;;;;8.07;4.00;;;21.60;61.90;;;;;;5064678;28;20039;-66
2021/09/27 08:55:37;;;;;;;7.22;4.97;;;21.60;61.70;;;;;;5073257;28;20021;-66
2021/09/27 08:58:25;;;;;;;8.65;4.25;;;21.60;61.80;;;;;;5072859;28;20021;-64
2021/09/27 09:00:58;;;;;;;10.43;4.43;;;21.60;62.20;;;;;;5072824;28;20086;-65
2021/09/27 09:03:29;;;;;;;6.95;3.72;;;21.50;61.80;;;;;;5072703;28;20072;-66
2021/09/27 09:06:04;;;;;;;7.93;4.55;;;21.50;61.70;;;;;;5072941;28;20075;-65
2021/09/27 09:08:59;;;;;;;10.30;4.85;;;21.50;61.80;;;;;;5073045;28;20082;-65
2021/09/27 09:11:54;;;;;;;6.38;4.32;;;21.40;61.80;;;;;;5072832;28;20424;-65
2021/09/27 09:14:44;;;;;;;7.68;3.97;;;21.40;62.00;;;;;;5072707;28;20029;-66
2021/09/27 09:17:27;;;;;;;9.40;4.53;;;21.40;62.30;;;;;;5072762;28;20504;-66
2021/09/27 09:19:53;;;;;;;6.45;4.20;;;21.40;62.30;;;;;;5073129;28;20020;-66
2021/09/27 09:22:34;;;;;;;13.95;4.60;;;21.50;62.80;;;;;;5072616;28;20028;-66
2021/09/27 09:25:01;;;;;;;8.50;4.72;;;21.50;63.00;;;;;;5072708;28;20478;-66
2021/09/27 09:27:27;;;;;;;5.63;4.10;;;21.60;62.70;;;;;;5072504;28;20039;-66
2021/09/27 09:29:54;;;;;;;4.78;4.10;;;21.70;62.70;;;;;;5072580;28;20103;-66
2021/09/27 09:32:28;;;;;;;5.63;3.60;;;21.70;62.60;;;;;;5072598;28;20386;-66
2021/09/27 09:35:32;;;;;;;7.53;4.40;;;21.90;62.70;;;;;;5071149;28;20046;-66
2021/09/27 09:38:03;;;;;;;5.57;3.97;;;21.90;62.40;;;;;;5067249;28;20114;-66
2021/09/27 09:40:48;;;;;;;7.07;3.92;;;22.00;62.20;;;;;;5052533;28;20029;-66
2021/09/27 09:43:36;;;;;;;5.25;4.07;;;22.10;61.80;;;;;;5052453;28;20033;-66
2021/09/27 09:46:08;;;;;;;6.35;4.50;;;22.20;61.80;;;;;;5052429;28;20021;-66
2021/09/27 09:48:35;;;;;;;4.78;3.33;;;22.30;61.80;;;;;;5052274;28;20422;-66
2021/09/27 09:51:25;;;;;;;5.85;3.97;;;22.40;61.80;;;;;;5051821;28;20104;-67
2021/09/27 09:54:07;;;;;;;6.57;4.00;;;22.50;61.90;;;;;;5052182;28;20025;-66
2021/09/27 09:56:35;;;;;;;5.93;4.43;;;22.70;61.90;;;;;;5052204;28;20021;-66
2021/09/27 09:59:13;;;;;;;4.88;4.15;;;22.80;60.70;;;;;;5052196;28;20017;-66
2021/09/27 10:01:39;;;;;;;8.20;4.00;;;22.90;60.50;;;;;;5050658;28;20060;-66
2021/09/27 10:04:21;;;;;;;7.13;4.00;;;23.10;60.40;;;;;;5052198;28;20029;-67
2021/09/27 10:06:49;;;;;;;6.05;3.53;;;23.30;60.20;;;;;;5052150;28;20047;-66
2021/09/27 10:09:28;;;;;;;5.47;3.78;;;23.60;60.20;;;;;;5052067;28;20040;-67
2021/09/27 10:12:07;;;;;;;4.32;3.92;;;23.80;59.70;;;;;;5052075;28;20074;-66
2021/09/27 10:14:42;;;;;;;3.67;3.38;;;24.00;59.10;;;;;;5052054;28;20025;-66
2021/09/27 10:17:36;;;;;;;4.38;3.58;;;24.20;59.10;;;;;;5051836;28;20227;-67
2021/09/27 10:20:23;;;;;;;4.00;3.42;;;24.50;59.10;;;;;;5051996;28;20041;-66
2021/09/27 10:22:54;;;;;;;3.90;3.50;;;24.60;58.20;;;;;;5051893;28;20029;-67
2021/09/27 10:25:40;;;;;;;6.43;3.80;;;24.70;56.70;;;;;;5051951;28;20056;-67
2021/09/27 10:28:13;;;;;;;4.18;3.33;;;24.70;56.20;;;;;;5051886;28;20031;-65
2021/09/27 10:30:59;;;;;;;3.60;3.30;;;24.70;56.10;;;;;;5051896;28;20037;-65
2021/09/27 10:33:33;;;;;;;5.63;3.55;;;24.70;56.20;;;;;;5051614;28;20021;-66
2021/09/27 10:36:11;;;;;;;4.00;3.55;;;24.60;55.70;;;;;;5051632;28;20032;-66
2021/09/27 10:38:49;;;;;;;5.07;4.05;;;24.50;55.60;;;;;;5051354;28;20048;-66
2021/09/27 10:41:29;;;;;;;7.15;3.88;;;24.30;55.60;;;;;;5051635;28;20021;-66
2021/09/27 10:44:11;;;;;;;4.15;3.53;;;24.20;56.10;;;;;;5051632;28;20051;-65
2021/09/27 10:46:40;;;;;;;4.78;3.83;;;24.10;56.40;;;;;;5051678;28;20035;-66
2021/09/27 10:49:21;;;;;;;5.75;3.85;;;24.10;56.70;;;;;;5051605;28;20021;-65
2021/09/27 10:51:52;;;;;;;4.05;3.65;;;24.00;56.90;;;;;;5051763;28;20025;-65
2021/09/27 10:55:06;;;;;;;6.03;3.75;;;24.00;56.70;;;;;;5051380;28;20051;-66
2021/09/27 10:57:58;;;;;;;4.38;3.60;;;24.00;57.30;;;;;;5051030;28;20077;-65
2021/09/27 11:00:29;;;;;;;4.63;3.70;;;24.00;57.10;;;;;;5051489;28;20028;-66
2021/09/27 11:03:02;;;;;;;4.95;4.03;;;24.00;56.80;;;;;;5051080;28;20187;-66
2021/09/27 11:05:45;;;;;;;3.55;2.92;;;24.00;56.70;;;;;;5055196;28;20108;-66
2021/09/27 11:08:14;;;;;;;4.27;3.87;;;24.00;57.10;;;;;;5055291;28;20478;-65
2021/09/27 11:10:50;;;;;;;4.75;3.53;;;24.00;57.10;;;;;;5055058;28;20036;-67
2021/09/27 11:13:37;;;;;;;4.82;3.70;;;24.10;56.80;;;;;;5054959;28;20480;-66
2021/09/27 11:16:19;;;;;;;4.78;3.78;;;24.20;57.30;;;;;;5055035;28;20028;-66
2021/09/27 11:18:57;;;;;;;5.20;3.85;;;24.30;57.60;;;;;;5053664;28;20091;-66
2021/09/27 11:21:35;;;;;;;6.03;3.90;;;24.50;56.60;;;;;;5055001;28;20043;-66
2021/09/27 11:24:23;;;;;;;5.97;3.83;;;24.60;56.60;;;;;;5055005;28;20083;-66
2021/09/27 11:27:13;;;;;;;4.43;4.03;;;24.80;56.20;;;;;;5053690;28;20108;-66
2021/09/27 11:29:47;;;;;;;3.78;3.42;;;24.90;55.60;;;;;;5054834;28;20025;-66
2021/09/27 11:32:22;;;;;;;7.22;3.67;;;25.10;55.80;;;;;;5054651;28;20040;-67
2021/09/27 11:35:16;;;;;;;4.20;3.80;;;25.20;55.60;;;;;;5053225;28;20382;-66
2021/09/27 11:37:41;;;;;;;6.30;3.90;;;25.30;55.00;;;;;;5054597;28;20021;-67
2021/09/27 11:40:07;;;;;;;4.97;4.22;;;25.50;54.80;;;;;;5054530;28;20032;-67
2021/09/27 11:42:36;;;;;;;4.70;4.15;;;25.50;53.70;;;;;;5053058;28;20033;-66
2021/09/27 11:45:09;;;;;;;8.75;4.72;;;25.60;54.10;;;;;;5054535;28;20021;-66
2021/09/27 11:47:45;;;;;;;5.88;4.07;;;25.70;53.30;;;;;;5054598;28;20444;-66
2021/09/27 11:50:30;;;;;;;4.72;4.22;;;25.80;53.00;;;;;;5054440;28;20037;-66
2021/09/27 11:53:17;;;;;;;8.07;4.70;;;25.80;52.90;;;;;;5054376;28;20025;-67
2021/09/27 11:56:17;;;;;;;5.55;4.28;;;25.90;52.90;;;;;;5054357;28;20067;-67
2021/09/27 11:59:14;;;;;;;6.05;4.88;;;25.90;52.80;;;;;;5052797;28;20064;-66
2021/09/27 12:01:53;;;;;;;5.95;4.88;;;26.00;52.70;;;;;;5054024;28;20052;-66
2021/09/27 12:04:53;;;;;;;6.70;5.07;;;26.00;51.90;;;;;;5053965;28;20135;-65
2021/09/27 12:07:21;;;;;;;6.20;4.30;;;26.10;51.50;;;;;;5054146;28;20040;-65
2021/09/27 12:09:54;;;;;;;4.25;3.83;;;26.20;51.70;;;;;;5053945;28;20408;-66
2021/09/27 12:12:39;;;;;;;5.17;4.30;;;26.30;52.10;;;;;;5053975;28;20017;-66
2021/09/27 12:15:06;;;;;;;4.90;4.43;;;26.40;51.30;;;;;;5052195;28;20429;-65
2021/09/27 12:17:36;;;;;;;5.80;5.00;;;26.50;51.00;;;;;;5053685;28;20025;-65
2021/09/27 12:20:16;;;;;;;4.85;4.18;;;26.60;50.30;;;;;;5053779;28;20023;-66
2021/09/27 12:22:57;;;;;;;4.57;3.88;;;26.60;50.40;;;;;;5053788;28;20035;-65
2021/09/27 12:25:30;;;;;;;4.40;4.00;;;26.70;50.00;;;;;;5053710;28;20023;-66
2021/09/27 12:28:06;;;;;;;5.88;4.10;;;26.70;49.40;;;;;;5053595;28;20047;-65
2021/09/27 12:30:40;;;;;;;4.93;4.25;;;26.80;49.00;;;;;;5053702;28;20107;-66
2021/09/27 12:33:12;;;;;;;4.43;4.03;;;26.80;49.40;;;;;;5053518;28;20033;-66
2021/09/27 12:35:42;;;;;;;4.20;3.80;;;26.80;49.40;;;;;;5053500;28;20071;-65
2021/09/27 12:38:08;;;;;;;7.82;4.50;;;26.90;49.20;;;;;;5053358;28;20021;-65
2021/09/27 12:40:43;;;;;;;5.78;3.80;;;26.90;48.60;;;;;;5053331;28;20017;-66
2021/09/27 12:43:16;;;;;;;6.05;3.95;;;26.90;49.20;;;;;;5053412;28;20115;-66
2021/09/27 12:45:46;;;;;;;4.90;3.95;;;26.90;48.90;;;;;;5053082;28;20017;-66
2021/09/27 12:48:23;;;;;;;4.47;3.65;;;26.90;49.50;;;;;;5053288;28;20033;-65
2021/09/27 12:50:59;;;;;;;4.88;4.10;;;26.80;49.00;;;;;;5053339;28;20115;-65
2021/09/27 12:54:05;;;;;;;6.50;4.50;;;26.80;48.80;;;;;;5053306;28;20040;-66
2021/09/27 12:56:32;;;;;;;4.15;3.75;;;26.70;49.20;;;;;;5052839;28;20035;-66
2021/09/27 12:59:15;;;;;;;8.35;4.20;;;26.70;48.90;;;;;;5053093;28;20061;-66
2021/09/27 13:01:49;;;;;;;6.78;3.60;;;26.70;49.10;;;;;;5052930;28;20044;-65
2021/09/27 13:04:33;;;;;;;6.15;3.85;;;26.70;49.60;;;;;;5053021;28;20037;-65
2021/09/27 13:07:16;;;;;;;4.68;3.90;;;26.70;49.30;;;;;;5052916;28;20036;-64
2021/09/27 13:09:57;;;;;;;4.18;3.78;;;26.80;49.00;;;;;;5052836;28;20033;-66
2021/09/27 13:12:28;;;;;;;4.10;3.50;;;26.80;48.80;;;;;;5052694;28;20104;-66
2021/09/27 13:15:16;;;;;;;4.80;3.97;;;26.90;48.60;;;;;;5052774;28;20099;-66
2021/09/27 13:18:05;;;;;;;5.65;4.18;;;26.90;48.70;;;;;;5052682;28;20528;-66
2021/09/27 13:20:46;;;;;;;4.95;4.47;;;27.00;49.00;;;;;;5052701;28;20028;-66
2021/09/27 13:23:14;;;;;;;6.32;4.20;;;27.10;47.90;;;;;;5052911;28;20664;-66
2021/09/27 13:25:55;;;;;;;5.28;4.05;;;27.10;47.30;;;;;;5052177;28;20033;-65
2021/09/27 13:28:23;;;;;;;4.68;3.88;;;27.00;47.20;;;;;;5051067;28;20078;-65
2021/09/27 13:31:17;;;;;;;5.82;4.35;;;27.10;47.10;;;;;;5056130;28;20429;-66
2021/09/27 13:33:50;;;;;;;4.72;4.20;;;27.00;47.10;;;;;;5060841;28;20140;-66